Dzhusaly, Kazakhstan
Current Conditions -  °F | °C
As of 1:00 PM on Monday 24 Nov 2014 (Local Time) from UAOO Reporting Station
Overcast Overcast  
Wind Chill: 24°   Ceiling: 1500
Heat Index: 32°   Visibility: 6mi
Dew Point: 28°   Wind: 9mph
Humidity: 87%   Direction: 350°N
Pressure: 30.09"   Gusts: NA
Location:  45.5°N, 64.09°E
Report Text: UAOO 240800Z 35004MPS 9999 OVC015 M00/M02 Q1019 R06/190360NOSIG RMK QFE752/1003
Loading
Personal Weather Stations






























Interactive Weather Map New forecast layout! Learn more

10-Day Weather Forecast

Advertisements
Track Severe Weather on mobile